createdAt,value
2017-12-17T00:01:29.599Z,1.07
2017-12-17T00:03:57.198Z,1.08
2017-12-17T00:06:24.809Z,1.08
2017-12-17T00:08:52.461Z,1.10
2017-12-17T00:11:20.026Z,1.11
2017-12-17T00:13:47.622Z,1.11
2017-12-17T00:16:15.272Z,1.09
2017-12-17T00:18:43.081Z,1.09
2017-12-17T00:21:10.684Z,1.09
2017-12-17T00:23:38.299Z,1.09
2017-12-17T00:26:05.933Z,1.11
2017-12-17T00:28:33.545Z,1.12
2017-12-17T00:31:01.185Z,1.12
2017-12-17T00:33:28.773Z,1.14
2017-12-17T00:35:56.372Z,1.13
2017-12-17T00:38:23.945Z,1.13
2017-12-17T00:40:51.560Z,1.14
2017-12-17T00:43:19.132Z,1.17
2017-12-17T00:45:46.702Z,1.16
2017-12-17T00:48:14.264Z,1.14
2017-12-17T00:50:41.905Z,1.11
2017-12-17T00:53:09.484Z,1.09
2017-12-17T00:55:37.079Z,1.09
2017-12-17T00:58:04.685Z,1.04
2017-12-17T01:00:32.288Z,1.04
2017-12-17T01:02:59.859Z,1.03
2017-12-17T01:05:27.879Z,1.03
2017-12-17T01:07:55.483Z,1.03
2017-12-17T01:10:23.061Z,1.04
2017-12-17T01:12:50.643Z,1.04
2017-12-17T01:15:18.305Z,1.03
2017-12-17T01:17:45.881Z,1.04
2017-12-17T01:20:13.445Z,1.06
2017-12-17T01:22:41.061Z,1.07
2017-12-17T01:25:08.659Z,1.07
2017-12-17T01:27:36.256Z,1.08
2017-12-17T01:30:03.863Z,1.07
2017-12-17T01:32:31.825Z,1.09
2017-12-17T01:34:59.402Z,1.11
2017-12-17T01:37:27.439Z,1.11
2017-12-17T01:39:55.021Z,1.12
2017-12-17T01:42:22.605Z,1.12
2017-12-17T01:44:50.210Z,1.12
2017-12-17T01:47:17.786Z,1.12
2017-12-17T01:49:45.419Z,1.12
2017-12-17T01:52:13.013Z,1.14
2017-12-17T01:54:40.775Z,1.13
2017-12-17T01:57:08.583Z,1.15
2017-12-17T01:59:36.205Z,1.15
2017-12-17T02:02:03.837Z,1.16
2017-12-17T02:04:31.475Z,1.15
2017-12-17T02:06:59.043Z,1.16
2017-12-17T02:09:27.396Z,1.17
2017-12-17T02:11:55.004Z,1.17
2017-12-17T02:14:22.985Z,1.17
2017-12-17T02:16:50.635Z,1.17
2017-12-17T02:19:18.871Z,1.15
2017-12-17T02:21:46.450Z,1.17
2017-12-17T02:24:14.042Z,1.18
2017-12-17T02:26:41.617Z,1.17
2017-12-17T02:29:09.196Z,1.18
2017-12-17T02:31:36.850Z,1.17
2017-12-17T02:34:04.398Z,1.16
2017-12-17T02:36:32.818Z,1.15
2017-12-17T02:39:00.402Z,1.14
2017-12-17T02:41:27.994Z,1.14
2017-12-17T02:43:55.648Z,1.14
2017-12-17T02:46:23.226Z,1.15
2017-12-17T02:48:50.852Z,1.16
2017-12-17T02:51:18.465Z,1.18
2017-12-17T02:53:46.077Z,1.18
2017-12-17T02:56:13.936Z,1.18
2017-12-17T02:58:41.542Z,1.17
2017-12-17T03:01:09.108Z,1.19
2017-12-17T03:03:36.717Z,1.19
2017-12-17T03:06:04.324Z,1.19
2017-12-17T03:08:32.229Z,1.19
2017-12-17T03:10:59.858Z,1.19
2017-12-17T03:13:27.445Z,1.19
2017-12-17T03:15:55.065Z,1.18
2017-12-17T03:18:22.623Z,1.18
2017-12-17T03:20:50.217Z,1.19
2017-12-17T03:23:17.845Z,1.19
2017-12-17T03:25:45.426Z,1.19
2017-12-17T03:28:13.025Z,1.18
2017-12-17T03:30:40.668Z,1.19
2017-12-17T03:33:08.249Z,1.18
2017-12-17T03:35:36.268Z,1.19
2017-12-17T03:38:03.840Z,1.19
2017-12-17T03:40:31.763Z,1.17
2017-12-17T03:42:59.313Z,1.18
2017-12-17T03:45:26.898Z,1.18
2017-12-17T03:47:54.511Z,1.17
2017-12-17T03:50:22.128Z,1.18
2017-12-17T03:52:49.732Z,1.15
2017-12-17T03:55:17.361Z,1.16
2017-12-17T03:57:45.646Z,1.16
2017-12-17T04:00:13.194Z,1.14
2017-12-17T04:02:40.778Z,1.15
2017-12-17T04:05:08.350Z,1.15
2017-12-17T04:07:35.988Z,1.15
2017-12-17T04:10:03.567Z,1.18
2017-12-17T04:12:31.522Z,1.17
2017-12-17T04:14:59.109Z,1.19
2017-12-17T04:17:26.672Z,1.19
2017-12-17T04:19:54.255Z,1.18
2017-12-17T04:22:21.827Z,1.20
2017-12-17T04:24:49.421Z,1.18
2017-12-17T04:27:17.010Z,1.17
2017-12-17T04:29:44.750Z,1.17
2017-12-17T04:32:12.303Z,1.18
2017-12-17T04:34:39.887Z,1.17
2017-12-17T04:37:07.457Z,1.18
2017-12-17T04:39:35.060Z,1.19
2017-12-17T04:42:02.646Z,1.18
2017-12-17T04:44:30.687Z,1.19
2017-12-17T04:46:58.273Z,1.19
2017-12-17T04:49:25.935Z,1.20
2017-12-17T04:51:53.558Z,1.21
2017-12-17T04:54:21.132Z,1.21
2017-12-17T04:56:48.735Z,1.20
2017-12-17T04:59:16.319Z,1.20
2017-12-17T05:01:43.941Z,1.20
2017-12-17T05:04:11.524Z,1.21
2017-12-17T05:06:39.120Z,1.22
2017-12-17T05:09:06.692Z,1.22
2017-12-17T05:11:34.304Z,1.20
2017-12-17T05:14:01.877Z,1.22
2017-12-17T05:16:29.872Z,1.21
2017-12-17T05:18:57.510Z,1.20
2017-12-17T05:21:25.130Z,1.21
2017-12-17T05:23:52.738Z,1.20
2017-12-17T05:26:20.332Z,1.15
2017-12-17T05:28:47.976Z,1.17
2017-12-17T05:31:15.552Z,1.18
2017-12-17T05:33:43.178Z,1.18
2017-12-17T05:36:10.774Z,1.18
2017-12-17T05:38:38.388Z,1.18
2017-12-17T05:41:06.005Z,1.19
2017-12-17T05:46:07.540Z,1.19
2017-12-17T05:48:35.502Z,1.20
2017-12-17T05:51:03.134Z,1.20
2017-12-17T05:53:30.722Z,1.19
2017-12-17T05:55:58.349Z,1.20
2017-12-17T05:58:25.914Z,1.19
2017-12-17T06:00:53.576Z,1.16
2017-12-17T06:03:21.143Z,1.19
2017-12-17T06:05:48.816Z,1.19
2017-12-17T06:08:16.412Z,1.16
2017-12-17T06:10:43.991Z,1.15
2017-12-17T06:13:11.557Z,1.16
2017-12-17T06:15:39.206Z,1.15
2017-12-17T06:18:06.800Z,1.16
2017-12-17T06:20:34.774Z,1.15
2017-12-17T06:23:02.344Z,1.15
2017-12-17T06:25:29.919Z,1.16
2017-12-17T06:27:57.592Z,1.17
2017-12-17T06:30:25.174Z,1.19
2017-12-17T06:32:52.786Z,1.17
2017-12-17T06:35:20.353Z,1.18
2017-12-17T06:37:47.941Z,1.17
2017-12-17T06:40:15.510Z,1.16
2017-12-17T06:42:43.114Z,1.15
2017-12-17T06:45:10.674Z,1.12
2017-12-17T06:47:38.335Z,1.16
2017-12-17T06:50:05.939Z,1.16
2017-12-17T06:52:33.513Z,1.15
2017-12-17T06:55:01.123Z,1.13
2017-12-17T06:57:28.732Z,1.14
2017-12-17T06:59:56.314Z,1.17
2017-12-17T07:02:23.896Z,1.16
2017-12-17T07:04:51.500Z,1.15
2017-12-17T07:07:19.067Z,1.16
2017-12-17T07:09:46.647Z,1.16
2017-12-17T07:12:14.243Z,1.16
2017-12-17T07:14:41.862Z,1.12
2017-12-17T07:17:09.425Z,1.13
2017-12-17T07:19:37.063Z,1.11
2017-12-17T07:22:04.666Z,1.12
2017-12-17T07:24:32.296Z,1.11
2017-12-17T07:26:59.946Z,1.14
2017-12-17T07:29:27.542Z,1.15
2017-12-17T07:31:55.147Z,1.14
2017-12-17T07:34:22.724Z,1.14
2017-12-17T07:36:50.332Z,1.14
2017-12-17T07:39:17.914Z,1.14
2017-12-17T07:41:45.501Z,1.15
2017-12-17T07:44:13.105Z,1.18
2017-12-17T07:46:40.813Z,1.19
2017-12-17T07:49:08.391Z,1.21
2017-12-17T07:51:36.249Z,1.23
2017-12-17T07:54:03.829Z,1.24
2017-12-17T07:56:31.405Z,1.28
2017-12-17T07:58:59.007Z,1.29
2017-12-17T08:01:26.584Z,1.31
2017-12-17T08:03:54.185Z,1.32
2017-12-17T08:06:27.836Z,1.35
2017-12-17T08:08:55.457Z,1.38
2017-12-17T08:11:23.051Z,1.40
2017-12-17T08:13:50.670Z,1.42
2017-12-17T08:16:18.436Z,1.44
2017-12-17T08:18:46.140Z,1.44
2017-12-17T08:21:13.707Z,1.47
2017-12-17T08:23:41.329Z,1.48
2017-12-17T08:26:08.917Z,1.50
2017-12-17T08:28:36.512Z,1.50
2017-12-17T08:31:04.186Z,1.51
2017-12-17T08:33:31.829Z,1.50
2017-12-17T08:35:59.445Z,1.47
2017-12-17T08:38:27.008Z,1.44
2017-12-17T08:40:54.631Z,1.43
2017-12-17T08:43:22.244Z,1.44
2017-12-17T08:45:49.907Z,1.45
2017-12-17T08:48:17.491Z,1.47
2017-12-17T08:50:45.234Z,1.48
2017-12-17T08:53:12.835Z,1.50
2017-12-17T08:55:40.839Z,1.51
2017-12-17T08:58:08.403Z,1.51
2017-12-17T09:00:36.026Z,1.52
2017-12-17T09:03:03.695Z,1.51
2017-12-17T09:05:31.301Z,1.56
2017-12-17T09:07:58.919Z,1.58
2017-12-17T09:10:26.529Z,1.60
2017-12-17T09:12:54.173Z,1.63
2017-12-17T09:15:21.898Z,1.67
2017-12-17T09:17:49.659Z,1.59
2017-12-17T09:20:17.282Z,1.69
2017-12-17T09:22:44.909Z,1.63
2017-12-17T09:25:12.484Z,1.69
2017-12-17T09:27:40.098Z,1.76
2017-12-17T09:30:07.872Z,1.78
2017-12-17T09:32:35.445Z,1.81
2017-12-17T09:35:03.093Z,1.79
2017-12-17T09:37:30.695Z,1.78
2017-12-17T09:39:58.324Z,1.76
2017-12-17T09:42:25.918Z,1.75
2017-12-17T09:44:53.540Z,1.74
2017-12-17T09:47:21.140Z,1.76
2017-12-17T09:49:48.756Z,1.77
2017-12-17T09:52:16.336Z,1.81
2017-12-17T09:54:43.940Z,1.84
2017-12-17T09:57:11.598Z,1.81
2017-12-17T09:59:39.338Z,1.82
2017-12-17T10:02:06.970Z,1.77
2017-12-17T10:04:34.589Z,1.77
2017-12-17T10:07:02.204Z,1.70
2017-12-17T10:09:29.796Z,1.67
2017-12-17T10:11:57.427Z,1.63
2017-12-17T10:14:24.998Z,1.64
2017-12-17T10:16:52.593Z,1.65
2017-12-17T10:19:20.157Z,1.64
2017-12-17T10:21:47.775Z,1.64
2017-12-17T10:24:15.367Z,1.64
2017-12-17T10:26:42.935Z,1.60
2017-12-17T10:29:10.519Z,1.61
2017-12-17T10:31:38.119Z,1.57
2017-12-17T10:34:05.718Z,1.54
2017-12-17T10:36:33.316Z,1.49
2017-12-17T10:39:00.976Z,1.39
2017-12-17T10:41:28.579Z,1.35
2017-12-17T10:43:56.216Z,1.35
2017-12-17T10:46:23.813Z,1.37
2017-12-17T10:48:51.444Z,1.41
2017-12-17T10:51:19.055Z,1.45
2017-12-17T10:53:46.649Z,1.47
2017-12-17T10:56:14.276Z,1.58
2017-12-17T10:58:41.923Z,1.62
2017-12-17T11:01:09.525Z,1.70
2017-12-17T11:03:37.115Z,1.69
2017-12-17T11:06:04.772Z,1.67
2017-12-17T11:08:32.322Z,1.72
2017-12-17T11:10:59.954Z,1.69
2017-12-17T11:13:27.540Z,1.72
2017-12-17T11:15:55.161Z,1.71
2017-12-17T11:18:22.779Z,1.77
2017-12-17T11:20:50.374Z,1.76
2017-12-17T11:23:17.995Z,1.69
2017-12-17T11:25:45.996Z,1.65
2017-12-17T11:28:13.618Z,1.76
2017-12-17T11:30:41.219Z,1.76
2017-12-17T11:33:08.824Z,1.77
2017-12-17T11:35:36.414Z,1.81
2017-12-17T11:38:04.125Z,1.89
2017-12-17T11:40:31.715Z,1.87
2017-12-17T11:42:59.298Z,1.87
2017-12-17T11:45:26.946Z,1.87
2017-12-17T11:47:54.556Z,1.88
2017-12-17T11:50:22.125Z,1.82
2017-12-17T11:52:49.748Z,1.80
2017-12-17T11:55:17.340Z,1.82
2017-12-17T11:57:44.969Z,1.81
2017-12-17T12:00:12.834Z,1.74
2017-12-17T12:02:40.438Z,1.72
2017-12-17T12:05:08.105Z,1.73
2017-12-17T12:07:35.701Z,1.69
2017-12-17T12:10:03.327Z,1.68
2017-12-17T12:12:30.914Z,1.70
2017-12-17T12:14:58.568Z,1.70
2017-12-17T12:17:26.137Z,1.62
2017-12-17T12:19:53.768Z,1.58
2017-12-17T12:22:21.327Z,1.61
2017-12-17T12:24:48.947Z,1.60
2017-12-17T12:27:16.559Z,1.52
2017-12-17T12:29:44.157Z,1.51
2017-12-17T12:32:11.783Z,1.48
2017-12-17T12:34:39.391Z,1.44
2017-12-17T12:37:07.046Z,1.50
2017-12-17T12:39:34.624Z,1.55
2017-12-17T12:42:02.247Z,1.56
2017-12-17T12:44:29.836Z,1.54
2017-12-17T12:46:57.465Z,1.53
2017-12-17T12:49:25.054Z,1.55
2017-12-17T12:51:52.704Z,1.63
2017-12-17T12:54:20.319Z,1.58
2017-12-17T12:56:47.985Z,1.58
2017-12-17T12:59:15.594Z,1.56
2017-12-17T13:01:43.309Z,1.53
2017-12-17T13:04:10.919Z,1.50
2017-12-17T13:06:38.595Z,1.48
2017-12-17T13:09:06.297Z,1.49
2017-12-17T13:11:33.972Z,1.48
2017-12-17T13:14:01.644Z,1.47
2017-12-17T13:16:29.344Z,1.48
2017-12-17T13:18:57.076Z,1.50
2017-12-17T13:21:24.671Z,1.52
2017-12-17T13:23:52.415Z,1.53
2017-12-17T13:26:20.290Z,1.52
2017-12-17T13:28:48.054Z,1.52
2017-12-17T13:31:15.696Z,1.53
2017-12-17T13:33:43.289Z,1.48
2017-12-17T13:36:10.925Z,1.48
2017-12-17T13:38:38.702Z,1.47
2017-12-17T13:41:06.429Z,1.47
2017-12-17T13:43:34.061Z,1.42
2017-12-17T13:46:02.739Z,1.44
2017-12-17T13:48:30.324Z,1.46
2017-12-17T13:50:57.958Z,1.40
2017-12-17T13:53:25.535Z,1.41
